createdAt,value
2017-06-25T00:00:45.173Z,23.30
2017-06-25T00:03:12.698Z,23.30
2017-06-25T00:05:40.275Z,23.30
2017-06-25T00:08:07.785Z,23.40
2017-06-25T00:10:36.097Z,23.40
2017-06-25T00:13:03.653Z,23.40
2017-06-25T00:15:31.215Z,23.40
2017-06-25T00:17:58.749Z,23.40
2017-06-25T00:20:26.270Z,23.50
2017-06-25T00:22:53.796Z,23.30
2017-06-25T00:25:21.359Z,23.00
2017-06-25T00:27:48.883Z,23.10
2017-06-25T00:30:16.421Z,22.90
2017-06-25T00:32:43.955Z,22.80
2017-06-25T00:35:11.569Z,22.90
2017-06-25T00:37:39.130Z,22.90
2017-06-25T00:40:06.680Z,22.90
2017-06-25T00:42:34.983Z,23.10
2017-06-25T00:45:02.532Z,23.10
2017-06-25T00:47:30.075Z,23.10
2017-06-25T00:49:57.634Z,23.20
2017-06-25T00:52:25.182Z,23.20
2017-06-25T00:54:52.730Z,23.00
2017-06-25T00:57:20.247Z,22.80
2017-06-25T00:59:47.767Z,22.90
2017-06-25T01:02:15.314Z,22.80
2017-06-25T01:04:42.828Z,22.80
2017-06-25T01:07:10.365Z,22.70
2017-06-25T01:09:37.886Z,22.40
2017-06-25T01:12:05.442Z,22.10
2017-06-25T01:14:32.958Z,21.90
2017-06-25T01:17:00.528Z,22.00
2017-06-25T01:19:28.026Z,22.30
2017-06-25T01:21:55.543Z,22.40
2017-06-25T01:24:23.142Z,22.10
2017-06-25T01:26:50.691Z,22.10
2017-06-25T01:29:18.228Z,22.10
2017-06-25T01:31:45.775Z,21.80
2017-06-25T01:34:13.298Z,21.70
2017-06-25T01:36:41.608Z,21.90
2017-06-25T01:39:09.130Z,21.90
2017-06-25T01:41:36.659Z,21.90
2017-06-25T01:44:04.211Z,21.90
2017-06-25T01:46:31.738Z,21.60
2017-06-25T01:48:59.243Z,21.50
2017-06-25T01:51:26.781Z,21.60
2017-06-25T01:53:54.291Z,21.80
2017-06-25T01:56:21.814Z,21.90
2017-06-25T01:58:49.316Z,21.80
2017-06-25T02:01:16.850Z,21.90
2017-06-25T02:03:44.354Z,21.70
2017-06-25T02:06:11.899Z,21.70
2017-06-25T02:08:39.421Z,21.60
2017-06-25T02:11:06.977Z,21.20
2017-06-25T02:13:34.492Z,21.40
2017-06-25T02:16:02.006Z,21.40
2017-06-25T02:18:29.604Z,21.20
2017-06-25T02:20:57.881Z,20.70
2017-06-25T02:23:26.187Z,21.00
2017-06-25T02:25:53.690Z,21.00
2017-06-25T02:28:21.250Z,21.10
2017-06-25T02:30:48.782Z,20.90
2017-06-25T02:33:16.314Z,21.30
2017-06-25T02:35:43.926Z,21.00
2017-06-25T02:38:11.471Z,21.10
2017-06-25T02:40:38.995Z,21.20
2017-06-25T02:43:06.546Z,21.20
2017-06-25T02:45:34.049Z,21.00
2017-06-25T02:48:01.594Z,21.00
2017-06-25T02:50:29.096Z,20.90
2017-06-25T02:52:56.638Z,20.90
2017-06-25T02:55:24.189Z,21.00
2017-06-25T02:57:51.727Z,21.20
2017-06-25T03:00:19.238Z,21.10
2017-06-25T03:02:46.784Z,20.60
2017-06-25T03:05:15.130Z,20.90
2017-06-25T03:07:42.705Z,20.80
2017-06-25T03:10:10.210Z,20.80
2017-06-25T03:12:37.742Z,20.70
2017-06-25T03:15:05.290Z,21.00
2017-06-25T03:17:32.825Z,21.00
2017-06-25T03:20:00.353Z,21.30
2017-06-25T03:22:27.898Z,21.20
2017-06-25T03:24:56.175Z,20.70
2017-06-25T03:27:24.469Z,20.80
2017-06-25T03:29:51.974Z,20.70
2017-06-25T03:32:19.522Z,20.60
2017-06-25T03:34:47.033Z,20.90
2017-06-25T03:37:14.581Z,20.90
2017-06-25T03:39:42.862Z,20.50
2017-06-25T03:42:11.189Z,20.70
2017-06-25T03:44:38.705Z,20.60
2017-06-25T03:47:07.034Z,21.00
2017-06-25T03:49:34.536Z,20.90
2017-06-25T03:52:02.895Z,21.00
2017-06-25T03:54:30.394Z,21.00
2017-06-25T03:56:57.945Z,20.90
2017-06-25T03:59:26.271Z,20.50
2017-06-25T04:01:53.785Z,20.50
2017-06-25T04:04:22.089Z,20.60
2017-06-25T04:06:49.595Z,20.60
2017-06-25T04:09:17.131Z,20.80
2017-06-25T04:11:44.650Z,20.90
2017-06-25T04:14:12.177Z,20.60
2017-06-25T04:16:39.717Z,20.60
2017-06-25T04:19:07.272Z,20.40
2017-06-25T04:21:34.825Z,20.90
2017-06-25T04:24:02.419Z,21.10
2017-06-25T04:26:29.962Z,21.20
2017-06-25T04:28:57.502Z,21.30
2017-06-25T04:31:25.026Z,21.20
2017-06-25T04:33:52.582Z,20.90
2017-06-25T04:36:20.094Z,20.90
2017-06-25T04:38:47.602Z,21.20
2017-06-25T04:41:15.118Z,20.80
2017-06-25T04:43:42.714Z,20.60
2017-06-25T04:46:11.010Z,20.70
2017-06-25T04:48:38.651Z,20.70
2017-06-25T04:51:06.990Z,21.00
2017-06-25T04:53:34.525Z,21.00
2017-06-25T04:56:02.029Z,21.00
2017-06-25T04:58:29.572Z,20.50
2017-06-25T05:00:57.071Z,20.50
2017-06-25T05:03:25.426Z,20.60
2017-06-25T05:05:52.942Z,20.60
2017-06-25T05:08:20.510Z,20.60
2017-06-25T05:10:48.038Z,20.80
2017-06-25T05:13:15.629Z,20.60
2017-06-25T05:15:43.129Z,20.80
2017-06-25T05:18:10.677Z,20.90
2017-06-25T05:20:38.179Z,20.90
2017-06-25T05:23:05.707Z,20.80
2017-06-25T05:25:33.213Z,21.00
2017-06-25T05:28:00.733Z,19.80
2017-06-25T05:30:28.266Z,20.40
2017-06-25T05:32:55.794Z,20.70
2017-06-25T05:35:23.300Z,20.50
2017-06-25T05:37:50.833Z,20.80
2017-06-25T05:40:18.362Z,20.80
2017-06-25T05:42:45.862Z,20.70
2017-06-25T05:45:13.408Z,20.70
2017-06-25T05:47:40.917Z,21.00
2017-06-25T05:50:09.232Z,21.00
2017-06-25T05:52:36.798Z,21.00
2017-06-25T05:55:04.329Z,21.40
2017-06-25T05:57:31.850Z,21.60
2017-06-25T05:59:59.395Z,21.40
2017-06-25T06:02:26.942Z,21.40
2017-06-25T06:04:54.468Z,21.50
2017-06-25T06:07:21.990Z,21.20
2017-06-25T06:09:49.553Z,21.40
2017-06-25T06:12:17.064Z,21.60
2017-06-25T06:14:44.604Z,21.50
2017-06-25T06:17:12.143Z,21.30
2017-06-25T06:19:39.695Z,21.70
2017-06-25T06:22:07.977Z,21.70
2017-06-25T06:24:36.269Z,21.50
2017-06-25T06:27:03.813Z,21.40
2017-06-25T06:29:32.143Z,21.50
2017-06-25T06:31:59.718Z,21.50
2017-06-25T06:34:27.263Z,21.60
2017-06-25T06:36:54.805Z,21.10
2017-06-25T06:39:22.372Z,21.10
2017-06-25T06:41:49.913Z,21.20
2017-06-25T06:44:17.542Z,21.30
2017-06-25T06:46:45.062Z,21.60
2017-06-25T06:49:12.590Z,21.40
2017-06-25T06:51:40.129Z,21.40
2017-06-25T06:54:08.439Z,21.70
2017-06-25T06:56:35.952Z,21.70
2017-06-25T06:59:03.554Z,22.10
2017-06-25T07:01:31.089Z,22.60
2017-06-25T07:03:59.419Z,22.50
2017-06-25T07:06:26.961Z,22.50
2017-06-25T07:08:54.537Z,22.70
2017-06-25T07:11:22.054Z,21.80
2017-06-25T07:13:50.379Z,21.80
2017-06-25T07:16:17.943Z,21.80
2017-06-25T07:18:45.486Z,21.90
2017-06-25T07:21:13.014Z,22.00
2017-06-25T07:23:41.300Z,22.10
2017-06-25T07:26:08.849Z,22.10
2017-06-25T07:28:37.136Z,22.20
2017-06-25T07:31:04.662Z,22.10
2017-06-25T07:33:32.202Z,22.40
2017-06-25T07:35:59.751Z,22.30
2017-06-25T07:38:27.267Z,22.50
2017-06-25T07:40:55.588Z,21.50
2017-06-25T07:43:23.129Z,21.40
2017-06-25T07:45:50.691Z,22.00
2017-06-25T07:48:18.195Z,22.10
2017-06-25T07:50:45.735Z,22.50
2017-06-25T07:53:13.278Z,22.70
2017-06-25T07:55:40.837Z,22.70
2017-06-25T07:58:08.410Z,22.50
2017-06-25T08:00:36.009Z,22.90
2017-06-25T08:03:04.299Z,22.50
2017-06-25T08:05:32.627Z,22.50
2017-06-25T08:08:00.145Z,22.50
2017-06-25T08:10:27.718Z,22.10
2017-06-25T08:12:55.261Z,21.60
2017-06-25T08:15:22.825Z,21.50
2017-06-25T08:17:50.334Z,22.00
2017-06-25T08:20:17.882Z,22.40
2017-06-25T08:22:45.394Z,22.90
2017-06-25T08:25:12.956Z,23.00
2017-06-25T08:27:40.510Z,23.00
2017-06-25T08:30:08.798Z,22.80
2017-06-25T08:32:37.074Z,23.30
2017-06-25T08:35:04.596Z,23.30
2017-06-25T08:37:32.154Z,23.30
2017-06-25T08:39:59.697Z,22.90
2017-06-25T08:42:27.259Z,22.90
2017-06-25T08:44:54.781Z,23.00
2017-06-25T08:47:22.297Z,22.70
2017-06-25T08:49:49.842Z,23.10
2017-06-25T08:52:17.366Z,23.40
2017-06-25T08:54:44.924Z,23.90
2017-06-25T08:57:12.446Z,23.30
2017-06-25T08:59:40.010Z,23.60
2017-06-25T09:02:07.562Z,24.20
2017-06-25T09:04:35.841Z,25.30
2017-06-25T09:07:04.180Z,26.70
2017-06-25T09:09:31.799Z,26.70
2017-06-25T09:11:59.327Z,26.80
2017-06-25T09:14:26.875Z,26.90
2017-06-25T09:16:54.405Z,28.00
2017-06-25T09:19:21.952Z,29.40
2017-06-25T09:21:50.264Z,30.90
2017-06-25T09:24:17.782Z,30.90
2017-06-25T09:26:46.093Z,30.50
2017-06-25T09:29:13.629Z,30.50
2017-06-25T09:31:41.182Z,31.40
2017-06-25T09:34:09.458Z,32.20
2017-06-25T09:36:37.770Z,32.60
2017-06-25T09:39:05.294Z,32.50
2017-06-25T09:41:33.612Z,32.90
2017-06-25T09:44:01.130Z,32.90
2017-06-25T09:46:29.446Z,33.10
2017-06-25T09:48:56.983Z,33.00
2017-06-25T09:51:24.513Z,32.40
2017-06-25T09:53:52.010Z,30.40
2017-06-25T09:56:19.534Z,28.50
2017-06-25T09:58:47.049Z,28.10
2017-06-25T10:01:14.593Z,27.10
2017-06-25T10:03:42.141Z,25.60
2017-06-25T10:06:09.741Z,23.80
2017-06-25T10:08:37.280Z,23.60
2017-06-25T10:11:04.794Z,23.80
2017-06-25T10:13:33.125Z,23.00
2017-06-25T10:16:00.627Z,23.00
2017-06-25T10:18:28.950Z,22.70
2017-06-25T10:20:56.474Z,22.70
2017-06-25T10:23:24.025Z,22.80
2017-06-25T10:25:51.578Z,22.90
2017-06-25T10:28:19.915Z,22.50
2017-06-25T10:30:47.434Z,22.50
2017-06-25T10:33:15.031Z,22.60
2017-06-25T10:35:42.566Z,22.70
2017-06-25T10:38:10.106Z,22.40
2017-06-25T10:40:38.398Z,23.40
2017-06-25T10:43:05.946Z,23.40
2017-06-25T10:45:33.463Z,23.60
2017-06-25T10:48:01.034Z,23.70
2017-06-25T10:50:28.562Z,24.30
2017-06-25T10:52:56.106Z,25.30
2017-06-25T10:55:23.614Z,25.60
2017-06-25T10:57:51.193Z,26.60
2017-06-25T11:00:18.694Z,27.70
2017-06-25T11:02:46.214Z,28.20
2017-06-25T11:05:13.722Z,28.30
2017-06-25T11:07:41.278Z,28.20
2017-06-25T11:10:08.830Z,27.20
2017-06-25T11:12:36.381Z,27.10
2017-06-25T11:15:03.923Z,27.40
2017-06-25T11:17:32.222Z,28.00
2017-06-25T11:19:59.741Z,28.00
2017-06-25T11:22:27.339Z,27.80
2017-06-25T11:24:54.884Z,28.00
2017-06-25T11:27:22.410Z,27.20
2017-06-25T11:29:49.922Z,27.20
2017-06-25T11:32:17.447Z,27.00
2017-06-25T11:34:44.967Z,26.80
2017-06-25T11:37:12.609Z,26.40
2017-06-25T11:39:40.126Z,26.50
2017-06-25T11:42:07.666Z,26.00
2017-06-25T11:44:35.170Z,25.20
2017-06-25T11:47:02.744Z,24.60
2017-06-25T11:49:30.326Z,24.30
2017-06-25T11:51:57.834Z,24.50
2017-06-25T11:54:25.454Z,24.40
2017-06-25T11:56:52.996Z,24.20
2017-06-25T11:59:20.571Z,24.40
2017-06-25T12:01:48.099Z,24.10
2017-06-25T12:04:15.639Z,24.10
2017-06-25T12:06:43.922Z,24.30
2017-06-25T12:09:11.455Z,24.30
2017-06-25T12:11:38.999Z,24.20
2017-06-25T12:14:06.548Z,24.20
2017-06-25T12:16:34.082Z,24.50
2017-06-25T12:19:01.642Z,24.10
2017-06-25T12:21:29.165Z,24.10
2017-06-25T12:23:56.703Z,23.90
2017-06-25T12:26:24.228Z,23.90
2017-06-25T12:28:51.779Z,24.50
2017-06-25T12:31:19.305Z,24.80
2017-06-25T12:33:47.610Z,25.20
2017-06-25T12:36:15.174Z,25.20
2017-06-25T12:38:42.734Z,25.00
2017-06-25T12:41:10.309Z,25.40
2017-06-25T12:43:37.854Z,25.70
2017-06-25T12:46:05.362Z,26.50
2017-06-25T12:48:32.882Z,26.90
2017-06-25T12:51:00.424Z,28.20
2017-06-25T12:53:27.986Z,28.10
2017-06-25T12:55:55.502Z,28.60
2017-06-25T12:58:23.052Z,27.20
2017-06-25T13:00:50.589Z,26.20
2017-06-25T13:03:18.127Z,26.00
2017-06-25T13:05:45.680Z,25.70
2017-06-25T13:08:13.247Z,25.10
2017-06-25T13:10:40.765Z,24.50
2017-06-25T13:13:08.344Z,24.80
2017-06-25T13:15:36.621Z,24.10
2017-06-25T13:18:04.926Z,24.10
2017-06-25T13:20:32.451Z,24.10
2017-06-25T13:23:00.734Z,24.10
2017-06-25T13:25:29.042Z,23.50
2017-06-25T13:27:56.582Z,23.50
2017-06-25T13:30:24.141Z,24.10
2017-06-25T13:32:51.663Z,24.30
2017-06-25T13:35:19.190Z,24.20
2017-06-25T13:37:46.722Z,23.50
2017-06-25T13:40:14.309Z,23.80
2017-06-25T13:42:41.855Z,24.10
2017-06-25T13:45:09.401Z,24.20
2017-06-25T13:47:36.930Z,24.30
2017-06-25T13:50:04.464Z,23.70
2017-06-25T13:52:32.018Z,23.90
2017-06-25T13:54:59.556Z,24.30
2017-06-25T13:57:27.082Z,23.70
2017-06-25T13:59:55.389Z,23.80
2017-06-25T14:02:22.908Z,23.80
2017-06-25T14:04:50.445Z,24.00
2017-06-25T14:07:17.960Z,24.50
2017-06-25T14:09:45.492Z,23.90
2017-06-25T14:12:13.046Z,23.20
2017-06-25T14:14:40.584Z,23.40
2017-06-25T14:17:08.099Z,23.60
2017-06-25T14:19:35.630Z,23.70
2017-06-25T14:22:03.138Z,23.90
2017-06-25T14:24:30.733Z,24.50
2017-06-25T14:26:58.258Z,24.70
2017-06-25T14:29:25.828Z,25.10
2017-06-25T14:31:53.346Z,24.90
2017-06-25T14:34:21.664Z,25.20
2017-06-25T14:36:49.191Z,25.20
2017-06-25T14:39:16.752Z,24.60
2017-06-25T14:41:44.289Z,24.60
2017-06-25T14:44:11.864Z,24.30
2017-06-25T14:46:40.151Z,24.60
2017-06-25T14:49:07.677Z,24.50
2017-06-25T14:51:35.210Z,24.40
2017-06-25T14:54:02.868Z,24.40
2017-06-25T14:56:30.394Z,24.10
2017-06-25T14:58:57.949Z,24.00
2017-06-25T15:01:25.463Z,23.60
2017-06-25T15:03:52.976Z,23.90
2017-06-25T15:06:20.538Z,23.70
2017-06-25T15:08:48.037Z,23.40
2017-06-25T15:11:15.592Z,23.30
2017-06-25T15:13:43.181Z,24.00
2017-06-25T15:16:10.723Z,23.90
2017-06-25T15:18:38.254Z,24.00
2017-06-25T15:21:05.774Z,24.30
2017-06-25T15:23:33.299Z,24.00
2017-06-25T15:26:00.820Z,23.50
2017-06-25T15:28:28.335Z,24.40
2017-06-25T15:30:55.910Z,25.10
2017-06-25T15:33:23.504Z,25.60
2017-06-25T15:35:51.071Z,25.60
2017-06-25T15:38:18.628Z,26.10
2017-06-25T15:40:46.164Z,26.00
2017-06-25T15:43:14.441Z,26.20
2017-06-25T15:45:41.998Z,26.20
2017-06-25T15:48:10.328Z,25.80
2017-06-25T15:50:37.938Z,25.80
2017-06-25T15:53:06.218Z,25.50
2017-06-25T15:55:33.791Z,25.50
2017-06-25T15:58:01.329Z,25.70
2017-06-25T16:00:28.882Z,25.80
2017-06-25T16:02:56.447Z,26.00
2017-06-25T16:05:23.998Z,26.10
2017-06-25T16:07:51.570Z,26.40
2017-06-25T16:10:19.140Z,25.90
2017-06-25T16:12:46.690Z,25.30
2017-06-25T16:15:14.238Z,24.80
2017-06-25T16:17:41.744Z,25.00
2017-06-25T16:20:09.309Z,25.00
2017-06-25T16:22:36.885Z,25.20
2017-06-25T16:25:04.409Z,25.40
2017-06-25T16:27:31.922Z,25.30
2017-06-25T16:29:59.477Z,25.30
2017-06-25T16:32:26.997Z,25.60
2017-06-25T16:34:54.554Z,25.70
2017-06-25T16:37:22.088Z,26.00
2017-06-25T16:39:49.652Z,26.20
2017-06-25T16:42:17.181Z,26.20
2017-06-25T16:44:44.744Z,25.70
2017-06-25T16:47:12.294Z,25.90
2017-06-25T16:49:39.819Z,25.70
2017-06-25T16:52:07.385Z,26.00
2017-06-25T16:54:34.919Z,25.90
2017-06-25T16:57:02.445Z,26.20
2017-06-25T16:59:29.970Z,25.60
2017-06-25T17:01:57.470Z,25.50
2017-06-25T17:04:25.030Z,25.70
2017-06-25T17:06:52.562Z,25.80
2017-06-25T17:09:20.114Z,25.30
2017-06-25T17:11:48.642Z,25.40
2017-06-25T17:14:17.037Z,25.90
2017-06-25T17:16:44.581Z,25.90
2017-06-25T17:19:12.861Z,25.70
2017-06-25T17:21:40.412Z,25.60
2017-06-25T17:24:07.933Z,25.50
2017-06-25T17:26:35.447Z,25.60
2017-06-25T17:29:03.019Z,25.50
2017-06-25T17:31:30.522Z,25.30
2017-06-25T17:33:58.071Z,25.70
2017-06-25T17:36:25.587Z,25.80
2017-06-25T17:38:53.144Z,25.40
2017-06-25T17:41:20.671Z,25.20
2017-06-25T17:43:48.175Z,25.50
2017-06-25T17:46:15.734Z,25.30
2017-06-25T17:48:43.249Z,25.40
2017-06-25T17:51:10.751Z,25.20
2017-06-25T17:53:38.316Z,25.10
2017-06-25T17:56:05.835Z,25.30
2017-06-25T17:58:33.386Z,25.10
2017-06-25T18:01:00.893Z,25.30
2017-06-25T18:03:28.457Z,25.50
2017-06-25T18:05:56.026Z,25.70
2017-06-25T18:08:23.550Z,25.70
2017-06-25T18:10:51.858Z,25.10
2017-06-25T18:13:19.366Z,25.00
2017-06-25T18:15:46.907Z,25.30
2017-06-25T18:18:14.407Z,25.50
2017-06-25T18:20:42.970Z,25.60
2017-06-25T18:23:10.514Z,25.70
2017-06-25T18:25:38.014Z,25.50
2017-06-25T18:28:05.557Z,25.10
2017-06-25T18:30:33.060Z,25.40
2017-06-25T18:33:00.602Z,25.70
2017-06-25T18:35:28.130Z,25.80
2017-06-25T18:37:55.684Z,25.60
2017-06-25T18:40:23.210Z,25.80
2017-06-25T18:42:50.714Z,25.30
2017-06-25T18:45:18.259Z,25.40
2017-06-25T18:47:45.779Z,25.30
2017-06-25T18:50:13.351Z,25.50
2017-06-25T18:52:40.863Z,25.60
2017-06-25T18:55:08.472Z,25.60
2017-06-25T18:57:36.007Z,25.50
2017-06-25T19:00:03.546Z,24.90
2017-06-25T19:02:31.883Z,25.20
2017-06-25T19:04:59.410Z,25.20
2017-06-25T19:07:26.949Z,25.40
2017-06-25T19:09:54.451Z,25.50
2017-06-25T19:12:21.991Z,25.60
2017-06-25T19:14:49.527Z,25.60
2017-06-25T19:17:17.046Z,25.20
2017-06-25T19:19:44.578Z,25.40
2017-06-25T19:22:12.108Z,25.50
2017-06-25T19:24:39.652Z,25.60
2017-06-25T19:27:07.916Z,25.70
2017-06-25T19:29:35.439Z,25.60
2017-06-25T19:32:02.971Z,25.60
2017-06-25T19:34:30.508Z,25.60
2017-06-25T19:36:58.792Z,25.50
2017-06-25T19:39:26.322Z,25.50
2017-06-25T19:41:53.887Z,25.50
2017-06-25T19:44:21.422Z,25.10
2017-06-25T19:46:48.956Z,25.00
2017-06-25T19:49:16.499Z,25.10
2017-06-25T19:51:43.997Z,25.10
2017-06-25T19:54:11.534Z,24.80
2017-06-25T19:56:39.055Z,24.90
2017-06-25T19:59:06.602Z,25.10
2017-06-25T20:01:34.166Z,25.10
2017-06-25T20:04:01.703Z,25.20
2017-06-25T20:06:29.228Z,25.20
2017-06-25T20:08:56.750Z,25.00
2017-06-25T20:11:24.285Z,24.80
2017-06-25T20:13:51.885Z,25.10
2017-06-25T20:16:19.430Z,25.20
2017-06-25T20:18:46.977Z,25.10
2017-06-25T20:21:14.504Z,25.20
2017-06-25T20:23:42.058Z,25.10
2017-06-25T20:26:09.582Z,25.00
2017-06-25T20:28:37.134Z,25.00
2017-06-25T20:31:05.454Z,24.90
2017-06-25T20:33:32.992Z,24.90
2017-06-25T20:36:00.517Z,24.90
2017-06-25T20:38:28.054Z,24.80
2017-06-25T20:40:55.569Z,24.60
2017-06-25T20:43:23.111Z,24.60
2017-06-25T20:45:50.686Z,24.60
2017-06-25T20:48:18.256Z,24.60
2017-06-25T20:50:45.788Z,24.60
2017-06-25T20:53:13.309Z,24.40
2017-06-25T20:55:40.846Z,24.50
2017-06-25T20:58:08.374Z,24.40
2017-06-25T21:00:35.949Z,24.40
2017-06-25T21:03:03.480Z,24.40
2017-06-25T21:05:31.030Z,24.40
2017-06-25T21:07:58.542Z,24.40
2017-06-25T21:10:26.087Z,24.40
2017-06-25T21:12:53.636Z,24.40
2017-06-25T21:15:21.941Z,24.50
2017-06-25T21:17:49.494Z,24.40
2017-06-25T21:20:17.042Z,24.20
2017-06-25T21:22:44.637Z,24.30
2017-06-25T21:25:12.218Z,24.30
2017-06-25T21:27:39.723Z,24.30
2017-06-25T21:30:07.274Z,24.30
2017-06-25T21:32:35.557Z,24.40
2017-06-25T21:35:03.096Z,24.40
2017-06-25T21:37:30.611Z,24.10
2017-06-25T21:39:58.138Z,24.20
2017-06-25T21:42:25.664Z,24.20
2017-06-25T21:44:53.187Z,24.20
2017-06-25T21:47:20.747Z,24.20
2017-06-25T21:49:48.308Z,24.20
2017-06-25T21:52:15.813Z,24.10
2017-06-25T21:54:43.366Z,24.10
2017-06-25T21:57:10.895Z,24.10
2017-06-25T21:59:38.425Z,24.10
2017-06-25T22:02:05.966Z,24.00
2017-06-25T22:04:34.270Z,24.10
2017-06-25T22:07:01.835Z,24.00
2017-06-25T22:09:29.414Z,24.00
2017-06-25T22:11:56.955Z,24.00
2017-06-25T22:14:24.626Z,23.70
2017-06-25T22:16:52.182Z,23.40
2017-06-25T22:19:19.738Z,22.70
2017-06-25T22:21:47.270Z,22.60
2017-06-25T22:24:14.806Z,22.70
2017-06-25T22:26:42.364Z,22.80
2017-06-25T22:29:09.907Z,22.40
2017-06-25T22:31:37.471Z,22.80
2017-06-25T22:34:05.032Z,22.90
2017-06-25T22:36:32.570Z,23.10
2017-06-25T22:39:00.106Z,23.10
2017-06-25T22:41:27.701Z,23.10
2017-06-25T22:43:55.218Z,22.90
2017-06-25T22:46:22.766Z,22.60
2017-06-25T22:48:51.071Z,22.10
2017-06-25T22:51:18.627Z,22.10
2017-06-25T22:53:46.179Z,22.10
2017-06-25T22:56:13.739Z,22.20
2017-06-25T22:58:41.254Z,22.40
2017-06-25T23:01:08.797Z,22.40
2017-06-25T23:03:36.343Z,22.20
2017-06-25T23:06:03.906Z,22.20
2017-06-25T23:08:31.485Z,22.10
2017-06-25T23:10:59.056Z,21.80
2017-06-25T23:13:26.601Z,22.00
2017-06-25T23:15:54.128Z,21.90
2017-06-25T23:18:21.673Z,21.90
2017-06-25T23:20:49.228Z,21.90
2017-06-25T23:23:17.524Z,22.30
2017-06-25T23:25:45.067Z,22.30
2017-06-25T23:28:13.337Z,22.10
2017-06-25T23:30:41.682Z,21.90
2017-06-25T23:33:09.217Z,21.90
2017-06-25T23:35:36.795Z,21.80
2017-06-25T23:38:04.311Z,22.00
2017-06-25T23:40:31.930Z,22.00
2017-06-25T23:42:59.465Z,22.10
2017-06-25T23:45:26.994Z,22.00
2017-06-25T23:47:54.550Z,21.80
2017-06-25T23:50:22.161Z,21.90
2017-06-25T23:52:49.679Z,22.00
2017-06-25T23:55:17.234Z,21.90
2017-06-25T23:57:44.741Z,22.00
